createdAt,value
2019-05-18T11:48:23.647Z,22.14
2019-05-18T11:50:56.473Z,22.54
2019-05-18T11:53:28.611Z,22.97
2019-05-18T11:56:01.531Z,23.38
2019-05-18T11:58:34.238Z,23.74
2019-05-18T12:01:06.568Z,24.06
2019-05-18T12:03:39.771Z,24.36
2019-05-18T12:06:12.906Z,24.59
2019-05-18T12:08:45.844Z,24.82
2019-05-18T12:11:18.415Z,25.02
2019-05-18T12:13:51.242Z,25.21
2019-05-18T12:16:23.515Z,25.38
2019-05-18T12:18:57.539Z,25.50
2019-05-18T12:21:29.795Z,25.63
2019-05-18T12:24:14.788Z,25.75
2019-05-18T12:26:37.525Z,25.84
2019-05-18T12:29:10.292Z,25.94
2019-05-18T12:31:42.454Z,25.99
2019-05-18T12:34:13.904Z,26.07
2019-05-18T12:36:46.335Z,26.14
2019-05-18T12:39:18.975Z,26.24
2019-05-18T12:41:51.464Z,26.28
2019-05-18T12:44:23.361Z,26.36
2019-05-18T12:46:55.690Z,26.40
2019-05-18T12:49:28.364Z,26.44
2019-05-18T12:52:00.800Z,26.47
2019-05-18T12:54:46.113Z,26.47
2019-05-18T12:57:08.650Z,26.44
2019-05-18T12:59:41.524Z,26.37
2019-05-18T13:02:14.585Z,26.34
2019-05-18T13:04:47.423Z,26.30
2019-05-18T13:07:20.030Z,26.22
2019-05-18T13:09:52.505Z,26.20
2019-05-18T13:12:24.310Z,26.20
2019-05-18T13:14:57.271Z,26.20
2019-05-18T13:17:30.471Z,26.20
2019-05-18T13:20:03.350Z,26.22
2019-05-18T13:22:35.568Z,26.25
2019-05-18T13:25:09.025Z,26.27
2019-05-18T13:27:42.381Z,26.26
2019-05-18T13:30:14.713Z,26.26
2019-05-18T13:32:48.481Z,26.23
2019-05-18T13:35:21.459Z,26.22
2019-05-18T13:37:52.985Z,26.19
2019-05-18T13:40:25.734Z,26.13
2019-05-18T13:42:58.353Z,26.12
2019-05-18T13:45:31.434Z,26.20
2019-05-18T13:48:02.993Z,26.21
2019-05-18T13:50:44.920Z,25.86
2019-05-18T13:53:34.964Z,25.39
2019-05-18T13:56:10.812Z,24.50
2019-05-18T13:59:00.763Z,24.04
2019-05-18T14:01:41.727Z,23.70
2019-05-18T14:04:13.659Z,23.57
2019-05-18T14:06:46.590Z,23.58
2019-05-18T14:09:19.444Z,23.59
2019-05-18T14:11:51.619Z,23.43
2019-05-18T14:14:30.771Z,23.28
2019-05-18T14:17:10.952Z,23.13
2019-05-18T14:19:48.287Z,23.01
2019-05-18T14:22:30.967Z,22.93
2019-05-18T14:25:10.527Z,22.90
2019-05-18T14:27:34.403Z,23.20
2019-05-18T14:30:07.259Z,23.27
2019-05-18T14:32:40.469Z,23.32
2019-05-18T14:35:15.975Z,23.58
2019-05-18T14:37:52.554Z,23.85
2019-05-18T14:40:26.741Z,24.09
2019-05-18T14:42:57.881Z,24.26
2019-05-18T14:45:39.309Z,24.42
2019-05-18T14:48:22.910Z,24.48
2019-05-18T14:50:55.343Z,24.50
2019-05-18T14:53:31.506Z,24.56
2019-05-18T15:00:02.638Z,24.78
2019-05-18T15:59:33.923Z,24.88
